Time;durP1;ratioP1;P1;durP2;ratioP2;P2;SDS_P1;SDS_P2;PMS_P1;PMS_P2;Temp;Humidity;BMP_temperature;BMP_pressure;BME280_temperature;BME280_humidity;BME280_pressure;Samples;Min_cycle;Max_cycle;Signal;HPM_P1;HPM_P2
2022/01/25 00:26:59;;;;;;;83.03;38.80;;;1.70;99.90;;;;;;5075220;28;20362;-66
2022/01/25 00:29:35;;;;;;;83.20;37.63;;;1.80;99.90;;;;;;5076888;28;20285;-67
2022/01/25 00:32:03;;;;;;;83.68;39.20;;;1.70;99.90;;;;;;5076603;28;20111;-66
2022/01/25 00:34:28;;;;;;;81.57;38.63;;;1.60;99.90;;;;;;5077614;28;20055;-67
2022/01/25 00:36:54;;;;;;;85.43;38.55;;;1.60;99.90;;;;;;5077883;28;20115;-67
2022/01/25 00:39:20;;;;;;;79.85;37.88;;;1.70;99.90;;;;;;5077325;28;20423;-67
2022/01/25 00:41:46;;;;;;;81.35;38.33;;;1.70;99.90;;;;;;5077235;28;20097;-67
2022/01/25 00:44:12;;;;;;;78.82;37.80;;;1.80;99.90;;;;;;5077293;28;20066;-67
2022/01/25 00:46:38;;;;;;;83.40;39.65;;;1.60;99.90;;;;;;5077079;28;20039;-67
2022/01/25 00:49:05;;;;;;;81.40;39.03;;;1.50;99.90;;;;;;5075808;28;20115;-68
2022/01/25 00:54:13;;;;;;;79.32;38.13;;;1.40;99.90;;;;;;5077046;28;20446;-66
2022/01/25 00:56:48;;;;;;;77.43;36.80;;;1.50;99.90;;;;;;5076126;28;20028;-66
2022/01/25 00:59:18;;;;;;;72.97;36.55;;;1.50;99.90;;;;;;5077056;28;20064;-66
2022/01/25 01:01:45;;;;;;;78.15;37.17;;;1.40;99.90;;;;;;5077040;28;20130;-66
2022/01/25 01:04:12;;;;;;;79.53;37.67;;;1.30;99.90;;;;;;5076832;28;20024;-66
2022/01/25 01:06:41;;;;;;;80.38;37.13;;;1.40;99.90;;;;;;5077000;28;20024;-65
2022/01/25 01:09:08;;;;;;;76.97;37.70;;;1.40;99.90;;;;;;5076812;28;20304;-66
2022/01/25 01:11:44;;;;;;;78.88;36.67;;;1.40;99.90;;;;;;5077381;28;20402;-65
2022/01/25 01:17:18;;;;;;;80.47;37.10;;;1.50;99.90;;;;;;5076421;28;20380;-67
2022/01/25 01:33:51;;;;;;;77.25;36.28;;;1.30;99.90;;;;;;5076760;28;20119;-65
2022/01/25 01:36:50;;;;;;;74.80;36.20;;;1.30;99.90;;;;;;5075949;28;20056;-65
2022/01/25 01:44:05;;;;;;;75.68;36.05;;;1.20;99.90;;;;;;5076546;28;20051;-65
2022/01/25 01:49:05;;;;;;;82.03;38.78;;;1.20;99.90;;;;;;5076399;28;20041;-65
2022/01/25 01:51:34;;;;;;;85.80;39.53;;;1.20;99.90;;;;;;5076619;28;20392;-65
2022/01/25 01:54:13;;;;;;;80.65;38.42;;;1.20;99.90;;;;;;5076343;28;20064;-65
2022/01/25 01:56:41;;;;;;;78.60;37.08;;;1.20;99.90;;;;;;5077142;28;20024;-66
2022/01/25 01:59:09;;;;;;;77.78;37.83;;;1.20;99.90;;;;;;5076500;28;20114;-65
2022/01/25 02:01:37;;;;;;;84.32;37.72;;;1.10;99.90;;;;;;5076430;28;20028;-66
2022/01/25 02:04:05;;;;;;;85.10;37.35;;;1.20;99.90;;;;;;5076440;28;20039;-65
2022/01/25 02:06:32;;;;;;;84.68;38.65;;;1.30;99.90;;;;;;5076494;28;20029;-66
2022/01/25 02:08:58;;;;;;;80.22;38.33;;;1.20;99.90;;;;;;5076451;28;20089;-65
2022/01/25 02:11:24;;;;;;;84.43;37.58;;;1.20;99.90;;;;;;5075641;28;20033;-66
2022/01/25 02:13:51;;;;;;;84.80;37.85;;;1.10;99.90;;;;;;5076398;28;20028;-66
2022/01/25 02:17:08;;;;;;;76.70;36.70;;;1.20;99.90;;;;;;5076415;28;20035;-66
2022/01/25 02:24:38;;;;;;;77.47;37.97;;;1.20;99.90;;;;;;5075636;28;20055;-65
2022/01/25 02:27:05;;;;;;;80.28;38.58;;;1.20;99.90;;;;;;5076502;28;20091;-66
2022/01/25 02:29:31;;;;;;;79.25;38.60;;;1.10;99.90;;;;;;5079296;28;20327;-67
2022/01/25 02:31:58;;;;;;;82.35;36.83;;;1.20;99.90;;;;;;5080423;28;20329;-66
2022/01/25 02:34:25;;;;;;;81.15;38.22;;;1.10;99.90;;;;;;5079530;28;20125;-66
2022/01/25 02:37:11;;;;;;;82.82;37.85;;;1.10;99.90;;;;;;5079912;28;20060;-66
2022/01/25 02:39:38;;;;;;;78.35;37.08;;;1.10;99.90;;;;;;5079797;28;20020;-65
2022/01/25 02:42:05;;;;;;;76.57;35.80;;;1.10;99.90;;;;;;5079773;28;20064;-65
2022/01/25 02:44:33;;;;;;;82.40;37.42;;;1.10;99.90;;;;;;5079712;28;20055;-66
2022/01/25 02:49:29;;;;;;;79.75;36.30;;;1.10;99.90;;;;;;5079900;28;20292;-64
2022/01/25 02:51:55;;;;;;;78.88;36.17;;;0.90;99.90;;;;;;5079461;28;20051;-64
2022/01/25 02:54:21;;;;;;;85.72;38.55;;;0.90;99.90;;;;;;5079397;28;20403;-65
2022/01/25 02:56:47;;;;;;;84.50;37.83;;;0.90;99.90;;;;;;5079481;28;20108;-65
2022/01/25 02:59:16;;;;;;;85.93;37.63;;;0.90;99.90;;;;;;5079240;28;20238;-64
2022/01/25 03:01:44;;;;;;;80.03;37.65;;;0.90;99.90;;;;;;5079357;28;20400;-65
2022/01/25 03:04:11;;;;;;;82.55;36.78;;;0.90;99.90;;;;;;5078405;28;20359;-65
2022/01/25 03:06:37;;;;;;;81.57;37.78;;;0.90;99.90;;;;;;5079293;28;20040;-65
2022/01/25 03:09:05;;;;;;;83.78;38.20;;;0.90;99.90;;;;;;5078407;28;20025;-64
2022/01/25 03:11:31;;;;;;;87.40;39.17;;;1.00;99.90;;;;;;5079219;28;20249;-64
2022/01/25 03:14:00;;;;;;;80.32;37.33;;;1.00;99.90;;;;;;5079006;28;20028;-64
2022/01/25 03:16:43;;;;;;;82.32;37.35;;;0.90;99.90;;;;;;5078292;28;20131;-65
2022/01/25 03:21:58;;;;;;;84.03;37.13;;;0.80;99.90;;;;;;5078199;28;20311;-65
2022/01/25 03:24:25;;;;;;;75.97;35.75;;;0.90;99.90;;;;;;5078840;28;20039;-66
2022/01/25 03:26:51;;;;;;;82.68;37.08;;;0.90;99.90;;;;;;5079971;28;20392;-65
2022/01/25 03:29:17;;;;;;;81.80;37.78;;;1.00;99.90;;;;;;5078758;28;20041;-64
2022/01/25 03:31:43;;;;;;;81.90;37.58;;;1.00;99.90;;;;;;5077959;28;20036;-65
2022/01/25 03:34:09;;;;;;;76.82;36.25;;;1.10;99.90;;;;;;5078423;28;20033;-66
2022/01/25 03:36:35;;;;;;;75.65;35.13;;;1.00;99.90;;;;;;5079279;28;20102;-65
2022/01/25 03:39:02;;;;;;;80.05;36.38;;;1.10;99.90;;;;;;5076744;28;20028;-65
2022/01/25 03:41:28;;;;;;;80.97;36.90;;;1.10;99.90;;;;;;5077933;28;20119;-65
2022/01/25 03:43:56;;;;;;;80.28;37.45;;;1.20;99.90;;;;;;5078547;28;20112;-65
2022/01/25 03:46:35;;;;;;;80.15;36.55;;;1.40;99.90;;;;;;5077782;28;20112;-65
2022/01/25 03:51:47;;;;;;;74.53;36.35;;;1.50;99.90;;;;;;5078916;28;20123;-65
2022/01/25 03:54:12;;;;;;;76.88;37.10;;;1.70;99.90;;;;;;5078324;28;20123;-65
2022/01/25 03:56:39;;;;;;;76.10;37.10;;;1.70;99.90;;;;;;5077507;28;20456;-65
2022/01/25 03:59:08;;;;;;;75.85;37.58;;;1.80;99.90;;;;;;5077519;28;20061;-65
2022/01/25 04:01:35;;;;;;;74.75;37.28;;;1.90;99.90;;;;;;5078193;28;20032;-66
2022/01/25 04:04:06;;;;;;;75.82;36.30;;;2.00;99.90;;;;;;5077341;28;20062;-65
2022/01/25 04:06:34;;;;;;;74.05;36.63;;;2.00;99.90;;;;;;5078645;28;20098;-65
2022/01/25 04:09:02;;;;;;;77.15;38.80;;;2.10;99.90;;;;;;5077992;28;20039;-65
2022/01/25 04:11:28;;;;;;;76.75;36.03;;;2.10;99.90;;;;;;5077191;28;20037;-65
2022/01/25 04:13:56;;;;;;;74.00;36.78;;;2.30;99.90;;;;;;5077749;28;20444;-65
2022/01/25 04:16:29;;;;;;;70.35;35.67;;;2.30;99.90;;;;;;5077855;28;20032;-65
2022/01/25 04:24:42;;;;;;;72.53;37.60;;;2.50;99.90;;;;;;5077735;28;20258;-65
2022/01/25 04:26:56;;;;;;;77.60;37.83;;;2.50;99.90;;;;;;5077291;28;20036;-65
2022/01/25 04:29:24;;;;;;;71.95;37.40;;;2.60;99.90;;;;;;5077785;28;20037;-64
2022/01/25 04:31:50;;;;;;;73.43;37.28;;;2.70;99.90;;;;;;5076929;28;20074;-65
2022/01/25 04:55:46;;;;;;;69.60;36.47;;;2.90;99.90;;;;;;5077596;28;20374;-65
2022/01/25 04:58:19;;;;;;;65.65;35.35;;;3.00;99.90;;;;;;5076553;28;20036;-66
2022/01/25 05:00:47;;;;;;;70.97;37.78;;;3.10;99.90;;;;;;5077529;28;20055;-65
2022/01/25 05:03:19;;;;;;;71.28;37.40;;;3.10;99.90;;;;;;5076301;28;20029;-65
2022/01/25 05:08:53;;;;;;;65.82;35.70;;;3.20;99.90;;;;;;5075615;28;20362;-66
2022/01/25 05:11:32;;;;;;;70.03;36.72;;;3.20;99.90;;;;;;5060513;28;20131;-67
2022/01/25 05:16:53;;;;;;;71.20;38.08;;;3.40;99.90;;;;;;5077559;28;20042;-64
2022/01/25 05:22:44;;;;;;;69.55;37.03;;;3.50;99.90;;;;;;5077023;28;20107;-66
2022/01/25 05:24:41;;;;;;;73.97;37.10;;;3.50;99.90;;;;;;5080660;28;20044;-65
2022/01/25 05:27:09;;;;;;;72.38;36.90;;;3.50;99.90;;;;;;5076826;28;20051;-65
2022/01/25 05:29:35;;;;;;;69.47;36.17;;;3.50;99.90;;;;;;5076869;28;20086;-65
2022/01/25 05:32:01;;;;;;;70.18;37.00;;;3.60;99.90;;;;;;5076788;28;20033;-65
2022/01/25 05:34:27;;;;;;;72.70;38.63;;;3.50;99.90;;;;;;5075754;28;20113;-67
2022/01/25 05:36:53;;;;;;;74.05;37.95;;;3.50;99.90;;;;;;5077434;28;20388;-66
2022/01/25 05:39:25;;;;;;;72.28;37.92;;;3.50;99.90;;;;;;5076023;28;20052;-67
2022/01/25 05:42:01;;;;;;;74.73;38.73;;;3.60;99.90;;;;;;5060184;28;20021;-67
2022/01/25 05:47:07;;;;;;;77.65;38.80;;;3.50;99.90;;;;;;5060952;28;20028;-65
2022/01/25 05:49:37;;;;;;;79.72;39.25;;;3.50;99.90;;;;;;5076751;28;20048;-66
2022/01/25 05:52:06;;;;;;;84.28;39.65;;;3.60;99.90;;;;;;5077185;28;20036;-67
2022/01/25 05:54:32;;;;;;;80.63;39.35;;;3.60;99.90;;;;;;5076653;28;20300;-67
2022/01/25 05:56:58;;;;;;;82.13;40.10;;;3.70;99.90;;;;;;5075823;28;20366;-66
2022/01/25 05:59:23;;;;;;;80.07;40.38;;;3.70;99.90;;;;;;5076520;28;20107;-66
2022/01/25 06:01:49;;;;;;;84.65;40.80;;;3.70;99.90;;;;;;5059038;28;20174;-65
2022/01/25 06:04:16;;;;;;;84.45;41.85;;;3.80;99.90;;;;;;5080231;28;20036;-65
2022/01/25 06:06:41;;;;;;;84.28;41.55;;;3.80;99.90;;;;;;5080696;28;20070;-65
2022/01/25 06:09:07;;;;;;;82.10;40.13;;;3.90;99.90;;;;;;5080269;28;20119;-65
2022/01/25 06:11:34;;;;;;;84.72;40.50;;;4.00;99.90;;;;;;5080269;28;20392;-65
2022/01/25 06:14:01;;;;;;;88.72;40.10;;;4.00;99.90;;;;;;5080113;28;20396;-65
2022/01/25 06:16:30;;;;;;;86.28;41.88;;;4.00;99.90;;;;;;5080459;28;20052;-66
2022/01/25 06:18:56;;;;;;;81.80;40.47;;;4.10;99.90;;;;;;5079836;28;20032;-65
2022/01/25 06:21:22;;;;;;;81.97;39.75;;;4.20;99.90;;;;;;5080125;28;20395;-65
2022/01/25 06:23:49;;;;;;;85.43;40.92;;;4.10;99.90;;;;;;5079851;28;20120;-65
2022/01/25 06:26:16;;;;;;;78.90;39.50;;;4.20;99.90;;;;;;5079202;28;20036;-65
2022/01/25 06:28:42;;;;;;;79.57;38.72;;;4.10;99.90;;;;;;5079751;28;20408;-65
2022/01/25 06:31:08;;;;;;;88.68;42.53;;;4.10;99.90;;;;;;5079816;28;20040;-65
2022/01/25 06:33:34;;;;;;;81.78;40.28;;;4.10;99.90;;;;;;5079561;28;20060;-66
2022/01/25 06:36:01;;;;;;;81.15;38.53;;;4.20;99.90;;;;;;5079564;28;20059;-65
2022/01/25 06:38:27;;;;;;;83.88;41.25;;;4.20;99.90;;;;;;5079551;28;20024;-64
2022/01/25 06:40:53;;;;;;;86.00;41.58;;;4.20;99.90;;;;;;5079607;28;20107;-65
2022/01/25 06:43:19;;;;;;;81.85;39.03;;;4.10;99.90;;;;;;5079528;28;20044;-65
2022/01/25 06:45:54;;;;;;;79.93;40.67;;;4.10;99.90;;;;;;5078950;28;20066;-64
2022/01/25 06:48:20;;;;;;;78.95;39.67;;;4.10;99.90;;;;;;5079104;28;20034;-65
2022/01/25 06:50:46;;;;;;;80.15;40.70;;;4.10;99.90;;;;;;5078980;28;20115;-65
2022/01/25 06:53:11;;;;;;;80.20;39.45;;;4.10;99.90;;;;;;5078805;28;20359;-66
2022/01/25 06:55:38;;;;;;;81.35;40.00;;;4.10;99.90;;;;;;5079326;28;20086;-65
2022/01/25 06:58:03;;;;;;;76.10;39.58;;;4.20;99.90;;;;;;5078354;28;20063;-66
2022/01/25 07:00:29;;;;;;;79.50;39.15;;;4.20;99.90;;;;;;5079373;28;20087;-66
2022/01/25 07:02:55;;;;;;;84.28;41.50;;;4.20;99.90;;;;;;5078454;28;20029;-66
2022/01/25 07:05:21;;;;;;;79.72;39.55;;;4.20;99.90;;;;;;5061811;28;20454;-66
2022/01/25 07:07:47;;;;;;;86.65;41.70;;;4.30;99.90;;;;;;5078469;28;20032;-65
2022/01/25 07:10:13;;;;;;;81.85;39.88;;;4.30;99.90;;;;;;5061793;28;20040;-67
2022/01/25 07:12:39;;;;;;;85.10;41.55;;;4.30;99.90;;;;;;5079080;28;20094;-66
2022/01/25 07:15:06;;;;;;;76.68;38.30;;;4.30;99.90;;;;;;5077996;28;20319;-66
2022/01/25 07:17:32;;;;;;;82.68;40.38;;;4.30;99.90;;;;;;5078894;28;20032;-66
2022/01/25 07:19:58;;;;;;;84.43;41.88;;;4.40;99.90;;;;;;5078907;28;20051;-66
2022/01/25 07:22:24;;;;;;;88.82;41.63;;;4.50;99.90;;;;;;5078868;28;20052;-66
2022/01/25 07:24:50;;;;;;;84.22;40.40;;;4.50;99.90;;;;;;5079017;28;20067;-66
2022/01/25 07:27:16;;;;;;;86.00;41.45;;;4.50;99.90;;;;;;5078800;28;20028;-65
2022/01/25 07:29:42;;;;;;;82.82;40.40;;;4.50;99.90;;;;;;5078329;28;20063;-67
2022/01/25 07:32:08;;;;;;;82.93;41.00;;;4.50;99.90;;;;;;5079149;28;20106;-65
2022/01/25 07:34:34;;;;;;;87.57;42.22;;;4.50;99.90;;;;;;5078423;28;20057;-67
2022/01/25 07:37:00;;;;;;;93.30;41.92;;;4.50;99.90;;;;;;5078605;28;20039;-66
2022/01/25 07:39:26;;;;;;;87.82;41.58;;;4.50;99.90;;;;;;5078559;28;20390;-67
2022/01/25 07:41:57;;;;;;;90.38;43.08;;;4.50;99.90;;;;;;5077858;28;20104;-66
2022/01/25 07:44:30;;;;;;;89.10;42.92;;;4.50;99.90;;;;;;5078200;28;20028;-67
2022/01/25 07:46:57;;;;;;;90.10;42.45;;;4.60;99.90;;;;;;5077827;28;20032;-66
2022/01/25 07:49:25;;;;;;;84.28;41.38;;;4.60;99.90;;;;;;5079018;28;20037;-65
2022/01/25 07:51:51;;;;;;;87.38;42.58;;;4.60;99.90;;;;;;5078258;28;20319;-65
2022/01/25 07:54:17;;;;;;;82.63;40.38;;;4.60;99.90;;;;;;5078141;28;20032;-66
2022/01/25 07:56:43;;;;;;;86.65;42.28;;;4.60;99.90;;;;;;5078319;28;20029;-66
2022/01/25 07:59:09;;;;;;;89.32;42.47;;;4.60;99.90;;;;;;5078228;28;20143;-66
2022/01/25 08:01:35;;;;;;;86.53;41.90;;;4.70;99.90;;;;;;5078206;28;20020;-66
2022/01/25 08:04:01;;;;;;;87.00;41.63;;;4.70;99.90;;;;;;5078035;28;20032;-65
2022/01/25 08:06:27;;;;;;;88.47;42.25;;;4.70;99.90;;;;;;5078098;28;20059;-66
2022/01/25 08:08:53;;;;;;;85.40;41.30;;;4.80;99.90;;;;;;5077980;28;20371;-66
2022/01/25 08:11:19;;;;;;;86.57;42.63;;;4.80;99.90;;;;;;5077971;28;20417;-65
2022/01/25 08:13:49;;;;;;;85.28;41.25;;;4.80;99.90;;;;;;5077852;28;20039;-66
2022/01/25 08:16:16;;;;;;;82.03;40.85;;;4.80;99.90;;;;;;5077930;28;20025;-66
2022/01/25 08:18:43;;;;;;;87.47;41.25;;;4.80;99.90;;;;;;5077841;28;20407;-66
2022/01/25 08:21:09;;;;;;;80.03;39.25;;;4.90;99.90;;;;;;5078143;28;20013;-65
2022/01/25 08:23:35;;;;;;;83.70;41.55;;;4.90;99.90;;;;;;5077661;28;20035;-66
2022/01/25 08:26:01;;;;;;;82.57;41.33;;;4.90;99.90;;;;;;5076802;28;20065;-66
2022/01/25 08:28:27;;;;;;;84.90;41.75;;;5.00;99.90;;;;;;5077611;28;20024;-66
2022/01/25 08:30:53;;;;;;;85.82;41.35;;;5.00;99.90;;;;;;5077470;28;20033;-66
2022/01/25 08:33:19;;;;;;;83.15;40.95;;;5.10;99.90;;;;;;5076742;28;20063;-66
2022/01/25 08:35:45;;;;;;;88.38;43.88;;;5.00;99.90;;;;;;5077258;28;20050;-66
2022/01/25 08:38:11;;;;;;;84.70;41.20;;;5.10;99.90;;;;;;5076778;28;20394;-66
2022/01/25 08:40:37;;;;;;;88.18;43.78;;;5.20;99.90;;;;;;5077464;28;20278;-65
2022/01/25 08:43:03;;;;;;;80.40;40.67;;;5.20;99.90;;;;;;5077431;28;20039;-66
2022/01/25 08:45:29;;;;;;;85.55;43.70;;;5.30;99.90;;;;;;5077294;28;20024;-66
2022/01/25 08:47:55;;;;;;;92.03;44.55;;;5.40;99.90;;;;;;5077233;28;20397;-66
2022/01/25 08:50:21;;;;;;;96.13;48.97;;;5.40;99.90;;;;;;5076605;28;20389;-66
2022/01/25 08:52:47;;;;;;;89.55;43.53;;;5.40;99.90;;;;;;5077232;28;20104;-66
2022/01/25 08:55:13;;;;;;;87.40;43.30;;;5.40;99.90;;;;;;5076424;28;20174;-66
2022/01/25 08:57:39;;;;;;;81.57;40.92;;;5.50;99.90;;;;;;5077232;28;20066;-66
2022/01/25 09:00:08;;;;;;;84.40;41.95;;;5.50;99.90;;;;;;5076470;28;20029;-66
2022/01/25 09:02:35;;;;;;;88.22;44.03;;;5.60;99.90;;;;;;5076967;28;20033;-66
2022/01/25 09:05:01;;;;;;;83.60;41.85;;;5.70;99.90;;;;;;5076967;28;20020;-66
2022/01/25 09:07:26;;;;;;;83.47;40.58;;;5.60;99.90;;;;;;5077062;28;20038;-67
2022/01/25 09:09:52;;;;;;;94.93;47.38;;;5.60;99.90;;;;;;5076247;28;20139;-67
2022/01/25 09:12:18;;;;;;;82.20;40.55;;;5.60;99.90;;;;;;5076184;28;20056;-66
2022/01/25 09:14:44;;;;;;;89.47;43.72;;;5.70;99.90;;;;;;5076221;28;20094;-66
2022/01/25 09:17:10;;;;;;;82.55;41.25;;;5.60;99.90;;;;;;5076150;28;20028;-66
2022/01/25 09:19:41;;;;;;;85.82;42.45;;;5.70;99.90;;;;;;5076906;28;20028;-66
2022/01/25 09:22:08;;;;;;;83.82;40.97;;;5.80;99.90;;;;;;5076827;28;20043;-66
2022/01/25 09:24:34;;;;;;;87.75;42.92;;;5.80;99.90;;;;;;5076135;28;20036;-66
2022/01/25 09:27:01;;;;;;;92.97;44.65;;;5.90;99.90;;;;;;5076756;28;20299;-66
2022/01/25 09:29:28;;;;;;;88.32;42.80;;;5.90;99.90;;;;;;5076736;28;20036;-65
2022/01/25 09:31:53;;;;;;;87.47;45.20;;;5.90;99.90;;;;;;5059760;28;20029;-66
2022/01/25 09:34:23;;;;;;;83.65;42.85;;;5.90;99.90;;;;;;5076442;28;20097;-66
2022/01/25 09:36:50;;;;;;;87.22;42.05;;;5.90;99.90;;;;;;5078829;28;20121;-66
2022/01/25 09:39:17;;;;;;;81.15;40.85;;;5.90;99.90;;;;;;5080829;28;20392;-66
2022/01/25 09:41:43;;;;;;;86.32;43.47;;;5.80;99.90;;;;;;5080805;28;20067;-66
2022/01/25 09:44:09;;;;;;;89.82;45.17;;;5.90;99.90;;;;;;5080610;28;20032;-67
2022/01/25 09:46:34;;;;;;;86.68;42.38;;;5.90;99.90;;;;;;5080863;28;20029;-66
2022/01/25 09:49:00;;;;;;;84.97;41.95;;;5.90;99.90;;;;;;5080625;28;20070;-66
2022/01/25 09:51:28;;;;;;;82.43;41.67;;;5.90;99.90;;;;;;5080550;28;20029;-68
2022/01/25 09:53:54;;;;;;;78.18;40.55;;;5.90;99.90;;;;;;5079735;28;20032;-66
2022/01/25 09:56:20;;;;;;;90.40;42.63;;;5.80;99.90;;;;;;5079899;28;20051;-66
2022/01/25 09:58:46;;;;;;;87.47;42.03;;;5.90;99.90;;;;;;5079726;28;20415;-67
2022/01/25 10:01:12;;;;;;;83.90;41.00;;;6.00;99.90;;;;;;5080403;28;20383;-67
2022/01/25 10:03:39;;;;;;;82.40;41.13;;;6.00;99.90;;;;;;5080481;28;20020;-66
2022/01/25 10:06:15;;;;;;;86.88;41.55;;;5.90;99.90;;;;;;5080251;28;20342;-66
2022/01/25 10:08:42;;;;;;;83.63;42.08;;;5.90;99.90;;;;;;5080298;28;20346;-67
2022/01/25 10:11:13;;;;;;;87.57;43.78;;;5.90;99.90;;;;;;5079586;28;20029;-67
2022/01/25 10:13:45;;;;;;;86.13;42.67;;;5.90;99.90;;;;;;5080349;28;20020;-67
2022/01/25 10:16:17;;;;;;;87.53;43.90;;;5.70;99.90;;;;;;5080401;28;20681;-67
2022/01/25 10:18:43;;;;;;;86.95;42.58;;;5.60;99.90;;;;;;5080149;28;20032;-67
2022/01/25 10:21:14;;;;;;;83.70;39.85;;;5.60;99.90;;;;;;5080055;28;20025;-65
2022/01/25 10:23:41;;;;;;;79.85;40.30;;;5.80;99.90;;;;;;5079264;28;20021;-66
2022/01/25 10:26:07;;;;;;;90.18;44.28;;;6.00;99.90;;;;;;5079902;28;20324;-66
2022/01/25 10:28:33;;;;;;;83.18;41.53;;;6.10;99.90;;;;;;5079910;28;20025;-67
2022/01/25 10:31:03;;;;;;;89.70;42.92;;;6.20;99.90;;;;;;5079143;28;20021;-67
2022/01/25 10:33:38;;;;;;;87.20;41.63;;;6.20;99.90;;;;;;5079706;28;20158;-66
2022/01/25 10:36:16;;;;;;;81.10;41.20;;;6.40;99.90;;;;;;5079605;28;20063;-67
2022/01/25 10:38:44;;;;;;;82.55;40.35;;;6.30;99.90;;;;;;5079724;28;20029;-66
2022/01/25 10:41:16;;;;;;;83.40;40.35;;;6.30;99.90;;;;;;5079732;28;20036;-66
2022/01/25 10:43:44;;;;;;;82.97;40.40;;;6.20;99.90;;;;;;5079845;28;20021;-67
2022/01/25 10:46:14;;;;;;;92.05;44.22;;;6.10;99.90;;;;;;5078857;28;20097;-66
2022/01/25 10:48:45;;;;;;;83.93;41.30;;;6.00;99.90;;;;;;5078893;28;20417;-67
2022/01/25 10:51:30;;;;;;;88.88;43.90;;;6.10;99.90;;;;;;5078890;28;20121;-66
2022/01/25 10:54:10;;;;;;;89.45;45.00;;;6.10;99.90;;;;;;5079243;28;20025;-69
2022/01/25 10:56:45;;;;;;;85.50;41.88;;;6.20;99.90;;;;;;5079377;28;20033;-62
2022/01/25 10:59:14;;;;;;;84.85;41.78;;;6.10;99.90;;;;;;5079390;28;20049;-62
2022/01/25 11:01:49;;;;;;;88.72;44.55;;;6.20;99.90;;;;;;5079260;28;20108;-63
2022/01/25 11:04:16;;;;;;;84.65;42.35;;;6.30;99.90;;;;;;5079300;28;20269;-62
2022/01/25 11:06:43;;;;;;;85.13;42.30;;;6.40;99.90;;;;;;5078458;28;20048;-62
2022/01/25 11:09:11;;;;;;;85.18;40.88;;;6.40;99.90;;;;;;5079040;28;20040;-60
2022/01/25 11:11:46;;;;;;;84.32;42.80;;;6.40;99.90;;;;;;5078467;28;20387;-61
2022/01/25 11:16:59;;;;;;;84.07;41.42;;;6.50;99.90;;;;;;5078430;28;20094;-61
2022/01/25 11:19:25;;;;;;;80.97;40.97;;;6.40;99.90;;;;;;5078937;28;20107;-62
2022/01/25 11:21:53;;;;;;;78.70;39.17;;;6.40;99.90;;;;;;5078925;28;20303;-62
2022/01/25 11:24:20;;;;;;;78.85;40.67;;;6.50;99.90;;;;;;5077932;28;20398;-61
2022/01/25 11:26:48;;;;;;;79.78;40.15;;;6.50;99.90;;;;;;5078150;28;20079;-61
2022/01/25 11:29:15;;;;;;;83.15;41.25;;;6.60;99.90;;;;;;5078533;28;20051;-61
2022/01/25 11:31:51;;;;;;;84.00;43.42;;;6.70;99.90;;;;;;5077969;28;20041;-61
2022/01/25 11:34:18;;;;;;;88.32;44.10;;;6.70;99.90;;;;;;5078392;28;20292;-61
2022/01/25 11:36:51;;;;;;;88.15;45.58;;;6.60;99.90;;;;;;5077875;28;20040;-61
2022/01/25 11:39:21;;;;;;;83.15;42.05;;;6.60;99.90;;;;;;5061184;28;20039;-62
2022/01/25 11:41:47;;;;;;;87.60;42.55;;;6.50;99.90;;;;;;5078514;28;20107;-61
2022/01/25 11:44:26;;;;;;;84.93;42.35;;;6.50;99.90;;;;;;5078830;28;20115;-60
2022/01/25 11:47:10;;;;;;;85.05;42.08;;;6.50;99.90;;;;;;5078331;28;20036;-60
2022/01/25 11:49:48;;;;;;;84.32;41.80;;;6.60;99.90;;;;;;5077411;28;20066;-61
2022/01/25 11:52:15;;;;;;;82.60;41.67;;;6.70;99.90;;;;;;5078096;28;20404;-60
2022/01/25 11:54:42;;;;;;;85.72;42.80;;;6.80;99.90;;;;;;5078191;28;20396;-60
2022/01/25 11:57:10;;;;;;;82.95;42.15;;;6.90;99.90;;;;;;5078146;28;20060;-60
2022/01/25 11:59:37;;;;;;;87.18;41.25;;;7.00;99.90;;;;;;5076726;28;20017;-60
2022/01/25 12:02:03;;;;;;;81.57;42.47;;;7.10;99.90;;;;;;5077636;28;20033;-61
2022/01/25 12:04:30;;;;;;;87.18;44.03;;;7.10;99.90;;;;;;5077349;28;20032;-60
2022/01/25 12:07:12;;;;;;;85.78;41.65;;;7.20;99.90;;;;;;5077091;28;20325;-60
2022/01/25 12:09:51;;;;;;;88.50;43.00;;;7.10;99.90;;;;;;5077802;28;20076;-62
2022/01/25 12:12:17;;;;;;;88.82;42.65;;;7.00;99.90;;;;;;5077168;28;20060;-60
2022/01/25 12:14:53;;;;;;;83.35;41.25;;;6.80;99.90;;;;;;5060412;28;20419;-61
2022/01/25 12:17:24;;;;;;;78.13;40.47;;;6.90;99.90;;;;;;5077752;28;20052;-61
2022/01/25 12:19:57;;;;;;;79.82;40.33;;;7.00;99.90;;;;;;5078154;28;20043;-61
2022/01/25 12:25:13;;;;;;;83.47;41.88;;;6.70;99.90;;;;;;5078014;28;20107;-60
2022/01/25 12:27:52;;;;;;;80.15;40.58;;;6.80;99.90;;;;;;5078041;28;20044;-60
2022/01/25 12:30:31;;;;;;;85.47;40.63;;;7.00;99.90;;;;;;5076864;28;20037;-60
2022/01/25 12:33:18;;;;;;;82.68;40.25;;;7.20;99.90;;;;;;5077449;28;20097;-60
2022/01/25 12:35:49;;;;;;;86.68;40.88;;;7.10;99.90;;;;;;5076386;28;20044;-60
2022/01/25 12:38:19;;;;;;;79.35;40.80;;;7.00;99.90;;;;;;5076624;28;20032;-60
2022/01/25 12:40:49;;;;;;;83.05;40.53;;;7.20;99.90;;;;;;5077305;28;20040;-60
2022/01/25 12:43:43;;;;;;;76.03;38.72;;;7.20;99.90;;;;;;5076697;28;20032;-61
2022/01/25 12:46:09;;;;;;;77.70;38.95;;;7.20;99.90;;;;;;5076912;28;20039;-60
2022/01/25 12:48:44;;;;;;;77.88;39.60;;;7.20;99.90;;;;;;5077172;28;20025;-60
2022/01/25 12:51:13;;;;;;;75.07;38.42;;;7.40;99.90;;;;;;5077210;28;20024;-60
2022/01/25 12:53:42;;;;;;;77.72;39.45;;;7.30;99.90;;;;;;5076215;28;20028;-60
2022/01/25 12:56:12;;;;;;;79.75;40.13;;;7.10;99.90;;;;;;5076306;28;20060;-59
2022/01/25 12:58:39;;;;;;;76.13;38.75;;;6.80;99.90;;;;;;5076397;28;20090;-59
2022/01/25 13:01:09;;;;;;;76.63;38.50;;;6.70;99.90;;;;;;5076374;28;20063;-60
2022/01/25 13:03:50;;;;;;;73.53;38.35;;;6.30;99.90;;;;;;5077022;28;20041;-60
2022/01/25 13:06:25;;;;;;;75.43;37.95;;;6.40;99.90;;;;;;5076285;28;20029;-60
2022/01/25 13:09:16;;;;;;;83.00;39.75;;;6.50;99.90;;;;;;5077114;28;20025;-60
2022/01/25 13:16:50;;;;;;;77.88;38.35;;;6.50;99.90;;;;;;5076835;28;20115;-60
2022/01/25 13:19:20;;;;;;;76.68;38.85;;;6.40;99.90;;;;;;5076088;28;20016;-60
2022/01/25 13:21:53;;;;;;;75.95;37.60;;;6.60;99.90;;;;;;5076841;28;20086;-66
2022/01/25 13:24:24;;;;;;;82.13;39.90;;;6.70;99.90;;;;;;5076782;28;20032;-60
2022/01/25 13:26:50;;;;;;;76.20;38.25;;;6.80;99.90;;;;;;5076031;28;20033;-60
2022/01/25 13:32:24;;;;;;;83.32;39.75;;;6.70;99.90;;;;;;5076186;28;20300;-60
2022/01/25 13:35:29;;;;;;;77.75;38.25;;;6.90;99.90;;;;;;5076492;28;20098;-60
2022/01/25 13:38:21;;;;;;;79.38;39.75;;;6.80;99.90;;;;;;5076720;28;20048;-59
2022/01/25 13:40:58;;;;;;;76.43;39.22;;;6.90;99.90;;;;;;5076657;28;20028;-60
2022/01/25 13:46:29;;;;;;;77.03;37.88;;;6.90;99.90;;;;;;5076743;28;20058;-61
2022/01/25 13:49:01;;;;;;;77.00;37.60;;;6.90;99.90;;;;;;5076573;28;20024;-60
2022/01/25 13:51:30;;;;;;;78.30;38.38;;;6.70;99.90;;;;;;5076651;28;20032;-60
2022/01/25 13:54:00;;;;;;;72.25;36.85;;;6.60;99.90;;;;;;5059007;28;20149;-60
2022/01/25 13:56:36;;;;;;;77.10;38.35;;;6.40;99.90;;;;;;5076544;28;20082;-60
2022/01/25 13:59:04;;;;;;;77.30;37.45;;;6.40;99.90;;;;;;5075685;28;20350;-60
2022/01/25 14:01:32;;;;;;;79.85;39.90;;;6.50;99.90;;;;;;5075696;28;20021;-60
2022/01/25 14:04:00;;;;;;;77.68;38.20;;;6.50;99.90;;;;;;5075970;28;20375;-60
2022/01/25 14:06:42;;;;;;;71.63;36.42;;;6.70;99.90;;;;;;5076421;28;20116;-60
2022/01/25 14:09:11;;;;;;;76.13;38.42;;;6.70;99.90;;;;;;5076490;28;20103;-60
2022/01/25 14:22:56;;;;;;;73.72;36.40;;;7.00;99.90;;;;;;5076362;28;20273;-59
2022/01/25 14:25:43;;;;;;;77.95;37.90;;;6.90;99.90;;;;;;5080030;28;20300;-60
2022/01/25 14:28:14;;;;;;;71.72;35.85;;;7.00;99.90;;;;;;5079965;28;20123;-60
2022/01/25 14:30:44;;;;;;;74.80;37.47;;;7.00;99.90;;;;;;5080384;28;20063;-60
2022/01/25 14:33:14;;;;;;;74.95;37.58;;;6.80;99.90;;;;;;5079140;28;20046;-60
2022/01/25 14:36:00;;;;;;;73.85;38.05;;;6.80;99.90;;;;;;5079038;28;20098;-60
2022/01/25 14:38:32;;;;;;;70.82;36.72;;;6.80;99.90;;;;;;5079351;28;20309;-59
2022/01/25 14:41:13;;;;;;;75.13;35.97;;;6.80;99.90;;;;;;5079001;28;20036;-61
2022/01/25 14:43:53;;;;;;;74.35;37.47;;;6.80;99.90;;;;;;5079762;28;20116;-59
2022/01/25 14:46:22;;;;;;;73.82;37.47;;;6.90;99.90;;;;;;5078773;28;20025;-60
2022/01/25 14:49:19;;;;;;;71.57;36.72;;;6.90;99.90;;;;;;5078710;28;20040;-60
2022/01/25 14:51:48;;;;;;;71.03;36.35;;;6.70;99.90;;;;;;5079185;28;20048;-60
2022/01/25 14:54:20;;;;;;;74.32;37.15;;;6.60;99.90;;;;;;5079339;28;20033;-59
2022/01/25 14:56:50;;;;;;;73.38;37.13;;;6.60;99.90;;;;;;5078771;28;20024;-59
2022/01/25 14:59:27;;;;;;;73.60;37.15;;;6.70;99.90;;;;;;5045679;28;20028;-60